createdAt,value
2018-05-16T00:01:34.301Z,7.07
2018-05-16T00:04:01.817Z,6.80
2018-05-16T00:06:29.311Z,7.10
2018-05-16T00:08:57.858Z,6.77
2018-05-16T00:11:25.617Z,7.40
2018-05-16T00:13:53.391Z,7.73
2018-05-16T00:16:21.166Z,7.30
2018-05-16T00:18:48.670Z,7.30
2018-05-16T00:21:16.382Z,7.70
2018-05-16T00:23:44.132Z,6.47
2018-05-16T00:26:11.642Z,7.73
2018-05-16T00:28:39.150Z,7.13
2018-05-16T00:31:06.658Z,7.73
2018-05-16T00:33:34.939Z,7.60
2018-05-16T00:36:02.471Z,7.20
2018-05-16T00:38:30.282Z,7.30
2018-05-16T00:40:57.829Z,7.17
2018-05-16T00:43:25.338Z,7.07
2018-05-16T00:45:52.845Z,8.30
2018-05-16T00:48:20.546Z,7.60
2018-05-16T00:51:00.160Z,7.40
2018-05-16T00:53:27.656Z,8.03
2018-05-16T00:55:55.199Z,8.60
2018-05-16T00:58:22.705Z,8.17
2018-05-16T01:00:50.388Z,7.67
2018-05-16T01:03:17.901Z,8.00
2018-05-16T01:05:45.397Z,7.93
2018-05-16T01:08:13.071Z,9.17
2018-05-16T01:10:40.585Z,7.57
2018-05-16T01:13:08.314Z,6.90
2018-05-16T01:15:35.836Z,8.00
2018-05-16T01:18:03.538Z,7.33
2018-05-16T01:20:31.042Z,8.63
2018-05-16T01:22:58.544Z,8.17
2018-05-16T01:25:26.183Z,7.67
2018-05-16T01:27:53.984Z,8.40
2018-05-16T01:30:21.523Z,8.23
2018-05-16T01:32:49.197Z,8.40
2018-05-16T01:35:16.713Z,8.13
2018-05-16T01:37:44.421Z,8.33
2018-05-16T01:40:11.929Z,8.33
2018-05-16T01:42:39.436Z,8.60
2018-05-16T01:45:07.099Z,8.10
2018-05-16T01:47:34.605Z,7.83
2018-05-16T01:50:02.183Z,7.53
2018-05-16T01:52:29.767Z,9.13
2018-05-16T01:54:57.528Z,8.40
2018-05-16T01:57:25.041Z,9.70
2018-05-16T01:59:53.434Z,9.00
2018-05-16T02:02:21.094Z,9.77
2018-05-16T02:04:48.624Z,8.47
2018-05-16T02:07:16.115Z,8.80
2018-05-16T02:09:43.811Z,9.27
2018-05-16T02:12:11.306Z,8.40
2018-05-16T02:14:39.038Z,8.47
2018-05-16T02:17:06.561Z,8.80
2018-05-16T02:19:34.244Z,8.30
2018-05-16T02:22:01.758Z,8.40
2018-05-16T02:24:29.266Z,8.30
2018-05-16T02:26:56.770Z,8.37
2018-05-16T02:29:25.160Z,8.47
2018-05-16T02:31:52.862Z,9.10
2018-05-16T02:34:20.503Z,9.30
2018-05-16T02:36:48.003Z,7.80
2018-05-16T02:39:15.707Z,9.47
2018-05-16T02:41:43.225Z,9.50
2018-05-16T02:44:10.734Z,9.10
2018-05-16T02:46:38.231Z,9.47
2018-05-16T02:49:05.739Z,9.83
2018-05-16T02:51:33.934Z,8.70
2018-05-16T02:54:01.717Z,9.00
2018-05-16T02:56:29.221Z,9.63
2018-05-16T02:58:56.741Z,10.10
2018-05-16T03:01:25.018Z,10.50
2018-05-16T03:03:52.637Z,9.13
2018-05-16T03:06:20.217Z,10.07
2018-05-16T03:08:47.730Z,10.60
2018-05-16T03:11:15.415Z,10.30
2018-05-16T03:13:43.203Z,9.80
2018-05-16T03:16:10.718Z,9.90
2018-05-16T03:18:38.386Z,10.13
2018-05-16T03:21:05.902Z,11.57
2018-05-16T03:23:33.524Z,10.43
2018-05-16T03:26:01.053Z,10.20
2018-05-16T03:28:28.565Z,11.10
2018-05-16T03:30:56.075Z,11.43
2018-05-16T03:33:23.857Z,11.03
2018-05-16T03:35:51.426Z,11.17
2018-05-16T03:38:18.999Z,10.53
2018-05-16T03:40:46.515Z,10.77
2018-05-16T03:43:14.021Z,11.27
2018-05-16T03:45:41.670Z,10.77
2018-05-16T03:48:09.182Z,12.00
2018-05-16T03:50:36.903Z,11.20
2018-05-16T03:53:04.406Z,10.40
2018-05-16T03:55:32.114Z,12.47
2018-05-16T03:58:20.462Z,10.90
2018-05-16T04:01:10.749Z,11.67
2018-05-16T04:03:50.016Z,11.03
2018-05-16T04:06:17.849Z,10.50
2018-05-16T04:08:45.360Z,11.10
2018-05-16T04:11:12.880Z,10.90
2018-05-16T04:13:40.526Z,11.40
2018-05-16T04:16:09.890Z,10.40
2018-05-16T04:18:37.407Z,11.03
2018-05-16T04:21:05.022Z,10.70
2018-05-16T04:23:32.806Z,11.63
2018-05-16T04:26:00.570Z,11.20
2018-05-16T04:28:28.329Z,11.53
2018-05-16T04:30:55.854Z,10.57
2018-05-16T04:33:24.024Z,13.27
2018-05-16T04:35:52.286Z,12.73
2018-05-16T04:38:19.850Z,12.10
2018-05-16T04:40:48.129Z,11.57
2018-05-16T04:43:15.833Z,10.77
2018-05-16T04:45:43.382Z,11.60
2018-05-16T04:48:10.890Z,11.87
2018-05-16T04:50:39.367Z,11.50
2018-05-16T04:53:06.882Z,12.07
2018-05-16T04:55:34.609Z,12.37
2018-05-16T04:58:02.136Z,12.23
2018-05-16T05:00:29.637Z,12.50
2018-05-16T05:02:57.315Z,13.13
2018-05-16T05:05:25.601Z,13.70
2018-05-16T05:07:53.111Z,12.30
2018-05-16T05:10:20.623Z,12.10
2018-05-16T05:12:48.130Z,13.70
2018-05-16T05:15:15.846Z,13.40
2018-05-16T05:17:43.606Z,12.30
2018-05-16T05:20:11.127Z,13.40
2018-05-16T05:22:40.366Z,14.20
2018-05-16T05:25:07.881Z,13.40
2018-05-16T05:27:35.397Z,14.60
2018-05-16T05:30:03.014Z,14.37
2018-05-16T05:32:30.526Z,13.97
2018-05-16T05:34:58.109Z,13.03
2018-05-16T05:37:26.890Z,12.50
2018-05-16T05:39:54.406Z,12.10
2018-05-16T05:42:21.921Z,13.40
2018-05-16T05:44:49.623Z,12.17
2018-05-16T05:47:17.127Z,11.90
2018-05-16T05:49:44.837Z,11.17
2018-05-16T05:52:12.354Z,13.77
2018-05-16T05:54:40.040Z,11.90
2018-05-16T05:57:07.545Z,24.60
2018-05-16T05:59:35.841Z,16.03
2018-05-16T06:02:03.363Z,11.97
2018-05-16T06:04:30.900Z,13.30
2018-05-16T06:06:58.405Z,13.07
2018-05-16T06:09:27.795Z,13.50
2018-05-16T06:11:55.309Z,12.30
2018-05-16T06:14:22.816Z,11.83
2018-05-16T06:16:51.167Z,12.97
2018-05-16T06:19:18.929Z,11.40
2018-05-16T06:21:46.446Z,10.93
2018-05-16T06:24:14.113Z,12.97
2018-05-16T06:26:41.675Z,12.43
2018-05-16T06:29:09.154Z,11.43
2018-05-16T06:31:36.670Z,12.73
2018-05-16T06:34:04.947Z,12.03
2018-05-16T06:36:32.671Z,13.33
2018-05-16T06:39:00.182Z,11.80
2018-05-16T06:41:27.850Z,13.07
2018-05-16T06:43:55.650Z,12.53
2018-05-16T06:46:23.405Z,17.20
2018-05-16T06:48:50.919Z,12.53
2018-05-16T06:51:18.433Z,12.83
2018-05-16T06:53:46.082Z,13.27
2018-05-16T06:56:13.869Z,13.90
2018-05-16T06:58:41.378Z,13.07
2018-05-16T07:01:09.069Z,11.53
2018-05-16T07:03:36.574Z,11.47
2018-05-16T07:06:04.128Z,12.50
2018-05-16T07:08:32.410Z,12.30
2018-05-16T07:10:59.932Z,11.40
2018-05-16T07:13:27.632Z,11.13
2018-05-16T07:15:55.109Z,10.93
2018-05-16T07:18:22.771Z,12.63
2018-05-16T07:20:50.277Z,12.37
2018-05-16T07:23:17.797Z,11.77
2018-05-16T07:25:45.439Z,11.97
2018-05-16T07:28:13.238Z,10.20
2018-05-16T07:30:41.000Z,11.00
2018-05-16T07:33:08.523Z,10.03
2018-05-16T07:35:36.215Z,9.40
2018-05-16T07:38:03.742Z,9.13
2018-05-16T07:40:31.401Z,10.60
2018-05-16T07:42:58.918Z,9.90
2018-05-16T07:45:27.940Z,10.10
2018-05-16T07:47:55.831Z,8.43
2018-05-16T07:50:23.318Z,9.70
2018-05-16T07:52:50.866Z,9.47
2018-05-16T07:55:18.636Z,10.27
2018-05-16T07:57:46.394Z,12.20
2018-05-16T08:00:13.910Z,11.13
2018-05-16T08:02:41.591Z,9.90
2018-05-16T08:05:09.381Z,9.73
2018-05-16T08:07:37.150Z,10.53
2018-05-16T08:10:04.646Z,9.60
2018-05-16T08:12:32.248Z,10.30
2018-05-16T08:14:59.827Z,10.47
2018-05-16T08:17:27.349Z,9.90
2018-05-16T08:19:54.975Z,8.47
2018-05-16T08:22:22.486Z,10.30
2018-05-16T08:24:50.257Z,9.30
2018-05-16T08:27:17.761Z,8.43
2018-05-16T08:29:45.451Z,8.00
2018-05-16T08:32:12.960Z,7.00
2018-05-16T08:34:40.700Z,5.57
2018-05-16T08:37:08.206Z,6.93
2018-05-16T08:39:35.896Z,6.73
2018-05-16T08:42:03.692Z,6.30
2018-05-16T08:44:31.222Z,6.40
2018-05-16T08:46:58.734Z,8.20
2018-05-16T08:49:29.798Z,5.63
2018-05-16T08:51:57.437Z,6.50
2018-05-16T08:54:24.977Z,7.07
2018-05-16T08:56:52.558Z,7.40
2018-05-16T08:59:21.163Z,8.00
2018-05-16T09:01:48.710Z,7.37
2018-05-16T09:04:17.033Z,7.70
2018-05-16T09:06:45.935Z,7.37
2018-05-16T09:09:13.445Z,6.70
2018-05-16T09:11:41.871Z,6.43
2018-05-16T09:14:09.503Z,6.37
2018-05-16T09:16:37.027Z,6.17
2018-05-16T09:19:04.726Z,6.93
2018-05-16T09:21:32.261Z,6.70
2018-05-16T09:23:59.965Z,6.60
2018-05-16T09:26:27.499Z,6.10
2018-05-16T09:28:55.195Z,7.10
2018-05-16T09:31:22.925Z,6.87
2018-05-16T09:33:50.654Z,7.67
2018-05-16T09:36:18.173Z,7.67
2018-05-16T09:38:45.691Z,15.00
2018-05-16T09:41:13.207Z,23.10
2018-05-16T09:43:40.726Z,9.97
2018-05-16T09:46:08.315Z,7.70
2018-05-16T09:48:35.822Z,6.83
2018-05-16T09:51:03.399Z,6.60
2018-05-16T09:53:31.120Z,7.27
2018-05-16T09:55:58.834Z,7.47
2018-05-16T09:58:27.186Z,6.30
2018-05-16T10:00:54.714Z,7.37
2018-05-16T10:03:22.345Z,7.60
2018-05-16T10:05:49.872Z,7.50
2018-05-16T10:08:17.562Z,6.80
2018-05-16T10:10:45.071Z,6.43
2018-05-16T10:13:12.785Z,7.20
2018-05-16T10:15:41.162Z,7.73
2018-05-16T10:18:08.667Z,7.87
2018-05-16T10:20:36.380Z,7.30
2018-05-16T10:23:03.895Z,6.17
2018-05-16T10:25:31.547Z,6.33
2018-05-16T10:27:59.915Z,6.20
2018-05-16T10:30:27.571Z,5.70
2018-05-16T10:32:55.315Z,5.20
2018-05-16T10:35:22.838Z,5.70
2018-05-16T10:37:50.440Z,5.00
2018-05-16T10:40:18.171Z,5.27
2018-05-16T10:42:45.839Z,6.47
2018-05-16T10:45:13.434Z,5.40
2018-05-16T10:47:41.173Z,5.43
2018-05-16T10:50:08.695Z,5.90
2018-05-16T10:52:36.314Z,5.10
2018-05-16T10:55:03.821Z,5.73
2018-05-16T10:57:31.382Z,5.33
2018-05-16T10:59:59.065Z,5.10
2018-05-16T11:02:26.562Z,4.60
2018-05-16T11:04:54.092Z,5.53
2018-05-16T11:07:21.818Z,5.07
2018-05-16T11:09:49.486Z,5.13
2018-05-16T11:12:16.993Z,5.00
2018-05-16T11:14:44.506Z,4.90
2018-05-16T11:17:12.148Z,4.87
2018-05-16T11:19:39.659Z,6.37
2018-05-16T11:22:08.670Z,5.60
2018-05-16T11:24:36.430Z,5.03
2018-05-16T11:27:04.159Z,5.50
2018-05-16T11:29:31.689Z,5.20
2018-05-16T11:31:59.479Z,5.37
2018-05-16T11:34:27.146Z,5.43
2018-05-16T11:36:54.668Z,5.57
2018-05-16T11:39:22.157Z,6.00
2018-05-16T11:41:49.840Z,5.30
2018-05-16T11:44:17.331Z,5.67
2018-05-16T11:46:44.850Z,6.60
2018-05-16T11:49:12.349Z,7.23
2018-05-16T11:51:39.927Z,5.70
2018-05-16T11:54:07.442Z,5.57
2018-05-16T11:56:35.174Z,5.27
2018-05-16T11:59:02.937Z,5.40
2018-05-16T12:01:30.457Z,5.83
2018-05-16T12:03:58.171Z,5.80
2018-05-16T12:06:25.689Z,5.17
2018-05-16T12:08:53.370Z,4.67
2018-05-16T12:11:20.890Z,4.30
2018-05-16T12:13:48.566Z,4.47
2018-05-16T12:16:16.089Z,4.63
2018-05-16T12:18:43.789Z,4.30
2018-05-16T12:21:11.574Z,4.50
2018-05-16T12:23:39.077Z,3.97
2018-05-16T12:26:06.776Z,4.10
2018-05-16T12:28:34.274Z,4.30
2018-05-16T12:31:02.022Z,4.83
2018-05-16T12:33:29.529Z,4.40
2018-05-16T12:35:57.241Z,4.13
2018-05-16T12:38:25.618Z,4.63
2018-05-16T12:40:53.135Z,4.30
2018-05-16T12:43:20.845Z,5.30
2018-05-16T12:45:49.554Z,5.30
2018-05-16T12:48:17.278Z,3.87
2018-05-16T12:50:44.802Z,3.90
2018-05-16T12:53:12.502Z,3.83
2018-05-16T12:55:40.020Z,4.90
2018-05-16T12:58:07.729Z,5.00
2018-05-16T13:00:35.487Z,5.17
2018-05-16T13:03:02.990Z,4.13
2018-05-16T13:05:30.713Z,4.97
2018-05-16T13:07:58.505Z,4.73
2018-05-16T13:10:26.237Z,4.23
2018-05-16T13:12:53.767Z,4.33
2018-05-16T13:15:21.242Z,5.80
2018-05-16T13:17:48.808Z,4.10
2018-05-16T13:20:16.271Z,5.00
2018-05-16T13:22:43.839Z,4.50
2018-05-16T13:25:11.338Z,4.60
2018-05-16T13:27:39.110Z,5.03
2018-05-16T13:30:06.811Z,4.37
2018-05-16T13:32:34.314Z,4.40
2018-05-16T13:35:02.023Z,4.90
2018-05-16T13:37:29.796Z,5.13
2018-05-16T13:39:57.290Z,4.80
2018-05-16T13:42:25.010Z,4.07
2018-05-16T13:44:52.505Z,4.80
2018-05-16T13:47:20.159Z,4.43
2018-05-16T13:49:47.687Z,4.27
2018-05-16T13:52:15.198Z,5.03
2018-05-16T13:54:42.905Z,5.00
2018-05-16T13:57:10.436Z,4.30
2018-05-16T13:59:38.126Z,5.07
2018-05-16T14:02:05.892Z,5.13
2018-05-16T14:04:33.772Z,4.60
2018-05-16T14:07:01.284Z,4.60
2018-05-16T14:09:28.838Z,4.97
2018-05-16T14:11:56.449Z,4.83
2018-05-16T14:14:24.099Z,5.93
2018-05-16T14:16:51.630Z,4.97
2018-05-16T14:19:19.151Z,5.33
2018-05-16T14:21:47.426Z,5.40
2018-05-16T14:24:15.114Z,5.90
2018-05-16T14:26:42.622Z,5.33
2018-05-16T14:29:10.123Z,4.97
2018-05-16T14:31:37.637Z,5.97
2018-05-16T14:34:05.282Z,4.70
2018-05-16T14:36:33.067Z,4.70
2018-05-16T14:39:00.590Z,5.93
2018-05-16T14:41:28.242Z,5.17
2018-05-16T14:43:55.727Z,5.10
2018-05-16T14:46:23.490Z,4.90
2018-05-16T14:48:51.799Z,4.83
2018-05-16T14:51:20.259Z,4.73
2018-05-16T14:53:47.776Z,4.80
2018-05-16T14:56:16.060Z,5.67
2018-05-16T14:58:44.081Z,4.90
2018-05-16T15:01:11.589Z,4.87
2018-05-16T15:03:39.098Z,4.63
2018-05-16T15:06:06.607Z,4.50
2018-05-16T15:08:34.290Z,5.07
2018-05-16T15:11:02.226Z,5.57
2018-05-16T15:13:29.938Z,4.57
2018-05-16T15:15:57.573Z,4.30
2018-05-16T15:18:25.086Z,4.97
2018-05-16T15:20:52.798Z,4.80
2018-05-16T15:23:20.310Z,4.60
2018-05-16T15:25:48.021Z,4.50
2018-05-16T15:28:15.525Z,4.70
2018-05-16T15:30:43.240Z,4.47
2018-05-16T15:33:11.084Z,5.50
2018-05-16T15:35:38.506Z,5.57
2018-05-16T15:38:06.187Z,4.93
2018-05-16T15:40:33.681Z,4.70
2018-05-16T15:43:01.197Z,5.47
2018-05-16T15:45:28.959Z,5.03
2018-05-16T15:47:56.627Z,5.20
2018-05-16T15:50:24.423Z,5.30
2018-05-16T15:52:51.926Z,4.87
2018-05-16T15:55:19.438Z,5.00
2018-05-16T15:57:47.098Z,4.73
2018-05-16T16:00:14.862Z,4.10
2018-05-16T16:02:42.591Z,4.27
2018-05-16T16:05:10.479Z,5.27
2018-05-16T16:07:38.128Z,4.67
2018-05-16T16:10:05.681Z,4.93
2018-05-16T16:12:33.346Z,4.97
2018-05-16T16:15:00.855Z,4.90
2018-05-16T16:17:28.419Z,5.33
2018-05-16T16:19:56.057Z,6.10
2018-05-16T16:22:23.578Z,4.77
2018-05-16T16:24:51.270Z,4.40
2018-05-16T16:27:18.783Z,5.27
2018-05-16T16:29:46.466Z,4.40
2018-05-16T16:32:14.264Z,4.70
2018-05-16T16:34:41.759Z,4.50
2018-05-16T16:37:09.306Z,4.17
2018-05-16T16:39:36.943Z,3.97
2018-05-16T16:42:04.465Z,4.77
2018-05-16T16:44:32.125Z,4.23
2018-05-16T16:46:59.630Z,4.90
2018-05-16T16:49:27.377Z,4.53
2018-05-16T16:51:54.891Z,5.10
2018-05-16T16:54:22.400Z,5.13
2018-05-16T16:56:50.053Z,5.30
2018-05-16T16:59:18.177Z,5.40
2018-05-16T17:01:45.688Z,4.40
2018-05-16T17:04:14.098Z,5.37
2018-05-16T17:06:42.634Z,5.50
2018-05-16T17:09:10.424Z,5.00
2018-05-16T17:11:38.175Z,5.30
2018-05-16T17:14:05.973Z,4.20
2018-05-16T17:16:33.934Z,5.27
2018-05-16T17:19:02.233Z,3.93
2018-05-16T17:21:29.734Z,4.10
2018-05-16T17:23:57.296Z,4.10
2018-05-16T17:26:24.801Z,5.10
2018-05-16T17:28:52.496Z,5.03
2018-05-16T17:31:20.289Z,4.33
2018-05-16T17:33:47.794Z,5.10
2018-05-16T17:36:17.050Z,5.33
2018-05-16T17:38:44.929Z,4.90
2018-05-16T17:41:12.434Z,5.33
2018-05-16T17:43:40.038Z,5.60
2018-05-16T17:46:07.621Z,5.73
2018-05-16T17:48:35.051Z,5.00
2018-05-16T17:51:02.691Z,5.40
2018-05-16T17:53:33.554Z,5.50
2018-05-16T17:56:02.800Z,5.13
2018-05-16T17:58:30.324Z,5.17
2018-05-16T18:00:57.898Z,5.00
2018-05-16T18:03:25.342Z,5.20
2018-05-16T18:05:53.620Z,6.60
2018-05-16T18:08:21.159Z,5.40
2018-05-16T18:10:48.670Z,6.70
2018-05-16T18:16:38.783Z,6.57
2018-05-16T18:19:06.292Z,7.17
2018-05-16T18:21:34.563Z,7.43
2018-05-16T18:24:02.301Z,6.60
2018-05-16T18:26:30.066Z,6.77
2018-05-16T18:28:58.315Z,7.00
2018-05-16T18:31:25.904Z,6.87
2018-05-16T18:33:53.667Z,6.43
2018-05-16T18:36:21.194Z,8.63
2018-05-16T18:38:49.525Z,7.67
2018-05-16T18:41:17.047Z,8.63
2018-05-16T18:43:44.555Z,7.37
2018-05-16T18:46:13.094Z,8.90
2018-05-16T18:48:40.611Z,7.43
2018-05-16T18:51:08.312Z,8.13
2018-05-16T18:53:35.834Z,7.87
2018-05-16T18:56:03.531Z,7.27
2018-05-16T18:58:31.063Z,7.37
2018-05-16T19:00:58.566Z,8.30
2018-05-16T19:03:26.106Z,7.63
2018-05-16T19:05:53.689Z,8.33
2018-05-16T19:08:22.806Z,8.47
2018-05-16T19:10:51.092Z,7.27
2018-05-16T19:13:18.806Z,7.30
2018-05-16T19:15:46.326Z,7.00
2018-05-16T19:18:13.840Z,8.17
2018-05-16T19:20:41.467Z,7.00
2018-05-16T19:23:08.981Z,6.93
2018-05-16T19:25:36.498Z,6.77
2018-05-16T19:28:04.036Z,8.20
2018-05-16T19:30:31.548Z,7.40
2018-05-16T19:32:59.095Z,7.73
2018-05-16T19:35:26.607Z,7.30
2018-05-16T19:37:54.268Z,8.53
2018-05-16T19:40:21.769Z,7.33
2018-05-16T19:42:49.301Z,6.90
2018-05-16T19:45:16.824Z,5.47
2018-05-16T19:47:44.396Z,8.50
2018-05-16T19:50:11.911Z,6.50
2018-05-16T19:52:39.422Z,6.17
2018-05-16T19:55:07.065Z,6.80
2018-05-16T19:57:34.576Z,6.63
2018-05-16T20:00:03.628Z,9.27
2018-05-16T20:02:31.409Z,6.10
2018-05-16T20:05:01.583Z,6.90
2018-05-16T20:07:29.509Z,6.17
2018-05-16T20:09:57.241Z,6.77
2018-05-16T20:12:24.746Z,5.60
2018-05-16T20:14:52.397Z,6.47
2018-05-16T20:17:19.813Z,5.57
2018-05-16T20:19:47.829Z,5.10
2018-05-16T20:22:15.333Z,6.73
2018-05-16T20:24:42.843Z,5.20
2018-05-16T20:27:10.362Z,5.60
2018-05-16T20:29:38.010Z,5.90
2018-05-16T20:32:05.593Z,6.33
2018-05-16T20:34:33.152Z,6.23
2018-05-16T20:37:00.662Z,6.17
2018-05-16T20:39:28.162Z,5.70
2018-05-16T20:41:55.674Z,6.53
2018-05-16T20:44:23.942Z,6.03
2018-05-16T20:46:52.830Z,5.47
2018-05-16T20:49:20.363Z,4.93
2018-05-16T20:51:48.020Z,6.00
2018-05-16T20:54:15.525Z,5.43
2018-05-16T20:56:43.065Z,5.47
2018-05-16T20:59:10.789Z,4.80
2018-05-16T21:01:38.560Z,6.83
2018-05-16T21:04:06.053Z,6.00
2018-05-16T21:06:33.574Z,6.83
2018-05-16T21:09:01.079Z,5.43
2018-05-16T21:11:29.349Z,5.90
2018-05-16T21:13:56.860Z,6.20
2018-05-16T21:16:24.373Z,8.73
2018-05-16T21:18:51.886Z,6.77
2018-05-16T21:21:19.505Z,6.53
2018-05-16T21:23:47.303Z,6.97
2018-05-16T21:26:14.882Z,8.20
2018-05-16T21:28:42.439Z,6.20
2018-05-16T21:31:09.956Z,6.57
2018-05-16T21:33:37.462Z,6.03
2018-05-16T21:36:05.003Z,5.10
2018-05-16T21:38:32.902Z,5.07
2018-05-16T21:41:00.426Z,5.43
2018-05-16T21:43:27.930Z,6.57
2018-05-16T21:45:55.446Z,6.03
2018-05-16T21:48:22.998Z,6.57
2018-05-16T21:50:50.777Z,6.07
2018-05-16T21:53:18.536Z,5.77
2018-05-16T21:55:46.050Z,6.30
2018-05-16T21:58:13.570Z,6.53
2018-05-16T22:00:41.841Z,6.07
2018-05-16T22:03:10.122Z,6.70
2018-05-16T22:05:38.394Z,7.30
2018-05-16T22:08:06.684Z,5.77
2018-05-16T22:10:34.267Z,5.53
2018-05-16T22:13:01.714Z,5.00
2018-05-16T22:15:29.227Z,5.00
2018-05-16T22:17:56.749Z,5.40
2018-05-16T22:20:24.330Z,5.20
2018-05-16T22:22:51.774Z,5.60
2018-05-16T22:25:19.301Z,5.77
2018-05-16T22:27:46.827Z,5.17
2018-05-16T22:30:13.841Z,4.77
2018-05-16T22:32:47.100Z,6.47
2018-05-16T22:35:20.342Z,6.30
2018-05-16T22:37:53.562Z,5.53
2018-05-16T22:40:27.523Z,6.50
2018-05-16T22:42:55.228Z,6.17
2018-05-16T22:45:37.634Z,5.03
2018-05-16T22:48:05.906Z,5.23
2018-05-16T22:50:33.414Z,5.10
2018-05-16T22:53:00.934Z,4.83
2018-05-16T22:55:29.204Z,5.63
2018-05-16T22:57:56.799Z,4.87
2018-05-16T23:00:24.297Z,6.17
2018-05-16T23:02:51.817Z,5.40
2018-05-16T23:05:19.313Z,5.87
2018-05-16T23:07:46.833Z,5.53
2018-05-16T23:10:14.338Z,5.83
2018-05-16T23:12:41.973Z,6.30
2018-05-16T23:15:09.478Z,6.57
2018-05-16T23:17:36.983Z,5.83
2018-05-16T23:20:04.482Z,6.27
2018-05-16T23:22:32.762Z,5.17
2018-05-16T23:39:27.155Z,5.33
2018-05-16T23:41:54.790Z,4.93
2018-05-16T23:44:22.307Z,5.83
2018-05-16T23:46:50.121Z,6.43
2018-05-16T23:49:17.695Z,5.90
2018-05-16T23:51:45.970Z,5.87
2018-05-16T23:54:14.264Z,5.30
2018-05-16T23:56:41.761Z,4.83
2018-05-16T23:59:09.275Z,5.03
